Time;durP1;ratioP1;P1;durP2;ratioP2;P2;SDS_P1;SDS_P2;PMS_P1;PMS_P2;Temp;Humidity;BMP_temperature;BMP_pressure;BME280_temperature;BME280_humidity;BME280_pressure;Samples;Min_cycle;Max_cycle;Signal;HPM_P1;HPM_P2
2022/12/25 00:02:10;;;;;;;;;52.67;43.00;;;;;9.91;98.26;99517.22;5057010;28;45357;-77
2022/12/25 00:04:36;;;;;;;;;58.00;47.00;;;;;9.86;98.08;99511.25;5054819;28;45413;-77
2022/12/25 00:07:01;;;;;;;;;50.33;36.00;;;;;9.83;98.15;99513.09;5067736;28;45519;-77
2022/12/25 00:09:26;;;;;;;;;54.67;42.00;;;;;9.78;98.27;99508.84;5059549;28;46287;-77
2022/12/25 00:11:52;;;;;;;;;52.33;43.00;;;;;9.80;99.66;99506.16;5068214;28;45553;-76
2022/12/25 00:14:17;;;;;;;;;43.67;37.33;;;;;9.80;99.27;99504.38;5058776;28;45424;-78
2022/12/25 00:16:43;;;;;;;;;49.33;39.00;;;;;9.80;99.78;99503.53;5076883;27;45422;-75
2022/12/25 00:19:08;;;;;;;;;49.33;39.33;;;;;9.79;99.64;99499.16;5060153;28;45918;-75
2022/12/25 00:21:33;;;;;;;;;43.67;36.00;;;;;9.80;99.39;99504.38;5054237;28;45384;-76
2022/12/25 00:23:59;;;;;;;;;44.33;38.33;;;;;9.83;99.26;99506.06;5052818;28;45427;-76
2022/12/25 00:26:26;;;;;;;;;49.67;40.00;;;;;9.83;99.46;99503.44;5054108;28;45368;-76
2022/12/25 00:28:53;;;;;;;;;50.67;39.00;;;;;9.84;99.55;99499.91;5050384;28;47292;-77
2022/12/25 00:31:20;;;;;;;;;43.00;35.33;;;;;9.84;98.93;99504.31;5087029;27;45317;-75
2022/12/25 00:33:47;;;;;;;;;45.00;36.00;;;;;9.83;99.00;99492.91;5050773;28;45384;-76
2022/12/25 00:36:14;;;;;;;;;40.33;35.33;;;;;9.82;98.95;99495.59;5054185;28;45534;-76
2022/12/25 00:38:40;;;;;;;;;48.00;39.00;;;;;9.81;98.84;99497.34;5053908;28;45566;-76
2022/12/25 00:41:11;;;;;;;;;46.00;39.67;;;;;9.80;99.00;99491.22;5053565;28;45394;-76
2022/12/25 00:43:37;;;;;;;;;50.00;40.67;;;;;9.77;98.92;99478.16;5054233;28;45442;-76
2022/12/25 00:46:05;;;;;;;;;61.33;48.33;;;;;9.74;99.02;99480.88;5053402;28;45483;-76
2022/12/25 00:48:31;;;;;;;;;51.33;39.33;;;;;9.73;98.51;99486.19;5059344;28;45751;-76
2022/12/25 00:51:00;;;;;;;;;58.00;42.67;;;;;9.68;98.60;99481.06;5082429;27;45424;-76
2022/12/25 00:53:26;;;;;;;;;49.67;40.00;;;;;9.64;98.21;99487.34;5059905;28;45396;-77
2022/12/25 00:55:57;;;;;;;;;54.00;43.67;;;;;9.60;98.34;99484.84;5053753;28;45537;-77
2022/12/25 00:58:24;;;;;;;;;51.67;38.00;;;;;9.56;98.46;99481.44;5071963;28;46385;-77
2022/12/25 01:00:49;;;;;;;;;48.67;37.33;;;;;9.52;98.55;99487.72;5053789;28;45325;-76
2022/12/25 01:03:16;;;;;;;;;44.67;36.67;;;;;9.49;98.13;99486.94;5052594;28;45436;-77
2022/12/25 01:05:42;;;;;;;;;53.00;42.33;;;;;9.46;98.32;99485.25;5053654;28;45373;-77
2022/12/25 01:08:07;;;;;;;;;49.67;38.67;;;;;9.41;98.17;99498.53;5053442;28;45511;-77
2022/12/25 01:10:33;;;;;;;;;37.67;34.33;;;;;9.41;98.48;99495.03;5053158;28;45435;-76
2022/12/25 01:12:58;;;;;;;;;36.33;32.00;;;;;9.39;98.52;99492.47;5053948;28;45451;-76
2022/12/25 01:15:24;;;;;;;;;39.67;35.67;;;;;9.37;98.66;99485.53;5053583;28;45381;-76
2022/12/25 01:17:49;;;;;;;;;33.00;31.33;;;;;9.36;98.75;99487.31;5054119;28;45435;-76
2022/12/25 01:20:16;;;;;;;;;40.33;33.33;;;;;9.35;98.84;99479.47;5054187;28;45455;-76
2022/12/25 01:22:42;;;;;;;;;36.33;27.67;;;;;9.34;98.82;99472.47;5053884;28;45329;-77
2022/12/25 01:25:09;;;;;;;;;42.33;33.00;;;;;9.32;98.31;99480.41;5052472;28;45468;-76
2022/12/25 01:27:35;;;;;;;;;23.00;21.00;;;;;9.28;98.47;99477.91;5052299;28;47609;-76
2022/12/25 01:30:00;;;;;;;;;36.33;32.67;;;;;9.27;98.65;99476.19;5053083;28;45344;-76
2022/12/25 01:32:25;;;;;;;;;42.00;33.33;;;;;9.26;98.74;99474.44;5052759;28;45459;-76
2022/12/25 01:34:51;;;;;;;;;43.33;35.00;;;;;9.24;98.87;99469.22;5053673;28;45413;-76
2022/12/25 01:37:16;;;;;;;;;44.67;35.33;;;;;9.23;98.78;99474.53;5056190;28;46577;-77
2022/12/25 01:39:42;;;;;;;;;39.33;33.67;;;;;9.21;98.71;99471.97;5055326;28;45813;-77
2022/12/25 01:42:22;;;;;;;;;36.00;32.67;;;;;9.20;98.82;99470.25;5057040;28;45499;-77
2022/12/25 01:44:47;;;;;;;;;38.67;32.67;;;;;9.20;99.01;99469.38;5056648;28;45392;-76
2022/12/25 01:47:15;;;;;;;;;37.67;33.00;;;;;9.21;99.18;99471.09;5056839;28;45432;-76
2022/12/25 01:49:45;;;;;;;;;41.00;35.67;;;;;9.21;99.01;99474.59;5057057;28;45421;-76
2022/12/25 01:52:22;;;;;;;;;37.33;33.33;;;;;9.21;98.87;99477.22;5057357;28;45377;-76
2022/12/25 01:54:55;;;;;;;;;42.00;36.67;;;;;9.21;98.71;99479.88;5056968;28;45483;-76
2022/12/25 01:57:27;;;;;;;;;39.33;33.00;;;;;9.23;98.46;99483.28;5056573;28;45557;-76
2022/12/25 01:59:55;;;;;;;;;41.33;32.00;;;;;9.23;98.55;99485.91;5054922;28;45699;-76
2022/12/25 02:02:21;;;;;;;;;39.33;34.00;;;;;9.24;98.14;99486.78;5056595;28;45365;-76
2022/12/25 02:04:52;;;;;;;;;33.33;32.00;;;;;9.22;97.61;99478.94;5056483;28;45358;-76
2022/12/25 02:07:24;;;;;;;;;33.67;31.67;;;;;9.21;97.99;99487.75;5056081;28;45459;-77
2022/12/25 02:09:50;;;;;;;;;29.33;28.67;;;;;9.21;97.71;99490.38;5056126;28;45372;-76
2022/12/25 02:12:21;;;;;;;;;31.00;26.67;;;;;9.20;97.74;99483.41;5056733;28;45380;-76
2022/12/25 02:14:49;;;;;;;;;28.00;26.33;;;;;9.20;97.59;99486.03;5056130;28;45421;-76
2022/12/25 02:17:36;;;;;;;;;28.00;26.00;;;;;9.18;97.80;99479.94;5054600;28;47842;-76
2022/12/25 02:20:02;;;;;;;;;32.00;29.67;;;;;9.17;97.81;99482.63;5054851;28;45370;-76
2022/12/25 02:22:45;;;;;;;;;30.67;25.33;;;;;9.17;97.65;99477.34;5056351;28;45558;-75
2022/12/25 02:25:38;;;;;;;;;28.33;25.00;;;;;9.14;97.41;99470.41;5056549;28;45347;-76
2022/12/25 02:28:10;;;;;;;;;29.00;24.00;;;;;9.13;97.60;99466.06;5055028;28;47393;-76
2022/12/25 02:30:43;;;;;;;;;25.50;24.75;;;;;9.14;97.32;99461.66;5056109;28;45350;-76
2022/12/25 02:36:04;;;;;;;;;31.25;24.50;;;;;9.06;97.40;99465.34;5056499;28;45360;-76
2022/12/25 02:39:56;;;;;;;;;27.67;21.00;;;;;9.05;97.30;99460.13;5056241;28;46443;-76
2022/12/25 02:41:28;;;;;;;;;29.00;21.50;;;;;9.05;97.34;99450.47;5056080;28;45466;-76
2022/12/25 03:06:42;;;;;;;;;29.00;27.33;;;;;8.82;97.60;99431.03;5044828;28;45450;-76
2022/12/25 03:12:04;;;;;;;;;24.75;23.25;;;;;8.79;97.67;99417.97;5055257;28;45850;-76
2022/12/25 03:17:13;;;;;;;;;37.67;31.33;;;;;8.75;98.16;99418.03;5055350;28;45411;-76
2022/12/25 03:27:57;;;;;;;;;28.00;25.33;;;;;8.71;99.08;99403.25;5055009;28;45615;-76
2022/12/25 03:33:37;;;;;;;;;38.67;29.33;;;;;8.70;98.81;99396.31;5055056;28;45550;-75
2022/12/25 03:36:15;;;;;;;;;28.33;26.33;;;;;8.69;98.82;99397.19;5042865;28;45462;-75
2022/12/25 04:36:47;;;;;;;;;23.50;19.25;;;;;8.39;97.58;99343.72;5054454;28;45434;-75
2022/12/25 04:39:13;;;;;;;;;19.50;17.75;;;;;8.39;97.59;99343.72;5054596;28;46372;-76
2022/12/25 04:41:38;;;;;;;;;27.25;24.75;;;;;8.37;97.36;99344.69;5053112;28;45383;-75
2022/12/25 04:44:03;;;;;;;;;20.25;18.00;;;;;8.34;97.15;99347.41;5053112;28;45381;-75
2022/12/25 04:46:29;;;;;;;;;21.25;19.00;;;;;8.30;97.12;99348.34;5052954;28;45560;-76
2022/12/25 04:48:54;;;;;;;;;28.00;26.67;;;;;8.27;97.37;99345.78;5054480;28;46045;-76
2022/12/25 04:51:22;;;;;;;;;27.33;24.33;;;;;8.27;97.60;99346.66;5053829;28;45491;-77
2022/12/25 04:53:48;;;;;;;;;30.67;25.00;;;;;8.25;97.28;99343.19;5052957;28;45333;-77
2022/12/25 04:56:15;;;;;;;;;21.33;18.67;;;;;8.22;97.49;99332.78;5053997;28;45529;-77
2022/12/25 04:58:41;;;;;;;;;24.50;21.75;;;;;8.19;97.58;99338.13;5053322;28;46148;-77
2022/12/25 05:01:08;;;;;;;;;27.75;21.00;;;;;8.18;97.79;99339.03;5053670;28;45540;-77
2022/12/25 05:03:34;;;;;;;;;23.75;19.25;;;;;8.18;97.44;99340.81;5053964;28;45349;-77
2022/12/25 05:05:59;;;;;;;;;24.50;18.75;;;;;8.19;97.59;99350.41;5054019;28;45394;-77
2022/12/25 05:08:25;;;;;;;;;20.75;17.50;;;;;8.17;97.31;99344.31;5069835;28;46207;-77
2022/12/25 05:10:51;;;;;;;;;28.00;16.50;;;;;8.16;97.59;99346.09;5054176;28;45407;-77
2022/12/25 05:13:16;;;;;;;;;19.50;17.75;;;;;8.13;97.52;99335.66;5057635;28;45381;-77
2022/12/25 05:15:42;;;;;;;;;19.00;18.33;;;;;8.11;97.63;99339.22;5056849;28;45347;-77
2022/12/25 05:18:08;;;;;;;;;21.00;16.00;;;;;8.11;97.72;99344.47;5057210;28;45459;-77
2022/12/25 05:20:34;;;;;;;;;24.00;20.75;;;;;8.12;97.76;99356.72;5055322;28;45984;-76
2022/12/25 05:22:59;;;;;;;;;25.00;22.00;;;;;8.12;97.67;99354.94;5056169;28;45430;-77
2022/12/25 05:25:25;;;;;;;;;22.50;18.50;;;;;8.09;97.37;99351.53;5057432;28;45433;-77
2022/12/25 05:27:50;;;;;;;;;21.25;20.25;;;;;8.06;97.37;99342.84;5057503;28;46336;-77
2022/12/25 05:30:16;;;;;;;;;9.75;8.50;;;;;8.06;97.45;99342.84;5056874;28;45467;-77
2022/12/25 05:32:41;;;;;;;;;20.50;18.75;;;;;8.04;97.41;99343.81;5057438;28;45409;-77
2022/12/25 05:35:07;;;;;;;;;26.25;19.50;;;;;8.03;97.03;99340.31;5056081;28;45543;-77
2022/12/25 05:37:34;;;;;;;;;23.50;18.75;;;;;8.01;97.22;99349.13;5057385;28;46520;-77
2022/12/25 05:40:00;;;;;;;;;19.33;19.33;;;;;7.99;97.22;99351.78;5057423;28;45413;-77
2022/12/25 05:42:26;;;;;;;;;18.50;17.50;;;;;7.97;97.41;99358.84;5057706;28;45421;-75
2022/12/25 05:44:51;;;;;;;;;18.00;16.25;;;;;7.96;97.42;99356.25;5056961;28;45407;-77
2022/12/25 05:47:16;;;;;;;;;22.67;19.00;;;;;7.94;97.90;99356.28;5057292;28;45523;-77
2022/12/25 05:49:42;;;;;;;;;24.33;23.67;;;;;7.89;97.46;99352.03;5055744;28;46141;-75
2022/12/25 05:52:07;;;;;;;;;25.00;22.33;;;;;7.84;97.41;99353.94;5055878;28;45353;-77
2022/12/25 05:54:34;;;;;;;;;22.67;21.67;;;;;7.80;97.55;99358.41;5057048;28;45441;-77
2022/12/25 05:56:59;;;;;;;;;24.00;21.67;;;;;7.78;97.64;99354.09;5057242;28;45636;-74
2022/12/25 05:59:28;;;;;;;;;22.00;20.33;;;;;7.76;97.80;99358.50;5055380;28;45414;-77
2022/12/25 06:01:53;;;;;;;;;21.33;20.33;;;;;7.75;98.02;99360.28;5057095;28;45396;-77
2022/12/25 06:04:18;;;;;;;;;23.00;20.00;;;;;7.74;98.26;99349.81;5055242;28;45438;-77
2022/12/25 06:06:44;;;;;;;;;19.75;17.00;;;;;7.70;97.95;99360.41;5056834;28;46331;-77
2022/12/25 06:09:12;;;;;;;;;19.50;17.00;;;;;7.71;98.53;99363.88;5055227;28;45518;-76
2022/12/25 06:11:37;;;;;;;;;18.75;17.50;;;;;7.70;98.38;99367.41;5056748;28;45375;-76
2022/12/25 06:14:03;;;;;;;;;22.00;16.33;;;;;7.69;98.18;99366.56;5056435;28;45542;-76
2022/12/25 06:16:28;;;;;;;;;16.33;12.00;;;;;7.69;98.14;99373.56;5056570;28;46389;-77
2022/12/25 06:18:54;;;;;;;;;18.00;16.33;;;;;7.64;98.36;99362.31;5056756;28;45502;-77
2022/12/25 06:21:19;;;;;;;;;18.33;15.00;;;;;7.63;98.32;99369.31;5056535;28;45842;-77
2022/12/25 06:23:45;;;;;;;;;18.67;17.00;;;;;7.62;98.45;99370.22;5056534;28;45574;-77
2022/12/25 06:26:13;;;;;;;;;20.33;19.67;;;;;7.62;98.73;99364.09;5056700;28;46426;-76
2022/12/25 06:28:39;;;;;;;;;25.00;22.00;;;;;7.64;98.86;99376.28;5054937;28;45382;-77
2022/12/25 06:31:10;;;;;;;;;26.33;20.67;;;;;7.64;98.78;99373.66;5056428;28;45420;-76
2022/12/25 06:33:36;;;;;;;;;24.00;21.00;;;;;7.65;98.63;99379.78;5056168;28;45448;-77
2022/12/25 06:36:15;;;;;;;;;25.33;24.33;;;;;7.67;98.95;99391.09;5056336;28;45437;-76
2022/12/25 06:38:41;;;;;;;;;21.33;20.00;;;;;7.67;98.87;99385.84;5056377;28;45389;-76
2022/12/25 06:41:10;;;;;;;;;17.00;16.00;;;;;7.66;98.88;99382.38;5056314;28;45376;-76
2022/12/25 06:43:36;;;;;;;;;25.33;24.67;;;;;7.66;98.93;99378.88;5055760;28;45503;-76
2022/12/25 06:46:08;;;;;;;;;29.33;27.33;;;;;7.65;98.55;99385.03;5056168;28;45415;-76
2022/12/25 06:48:34;;;;;;;;;19.00;17.00;;;;;7.63;98.77;99381.56;5071503;28;45374;-76
2022/12/25 06:51:01;;;;;;;;;22.00;19.67;;;;;7.64;98.66;99378.06;5056069;28;45368;-76
2022/12/25 06:53:27;;;;;;;;;22.00;19.00;;;;;7.63;98.50;99376.31;5056269;28;45475;-76
2022/12/25 06:55:52;;;;;;;;;23.00;19.33;;;;;7.62;98.58;99378.09;5054601;28;46984;-77
2022/12/25 06:58:18;;;;;;;;;17.00;17.00;;;;;7.61;98.38;99370.25;5056016;28;45525;-76
2022/12/25 07:00:43;;;;;;;;;14.75;14.25;;;;;7.63;98.49;99381.56;5055297;28;45479;-76
2022/12/25 07:03:19;;;;;;;;;17.50;15.50;;;;;7.62;98.47;99379.84;5056194;28;45330;-77
2022/12/25 07:05:46;;;;;;;;;18.00;15.75;;;;;7.63;98.30;99377.19;5055995;28;46426;-76
2022/12/25 07:08:11;;;;;;;;;14.50;12.25;;;;;7.65;98.25;99380.63;5055720;28;45382;-77
2022/12/25 07:10:36;;;;;;;;;18.00;15.75;;;;;7.62;98.04;99377.22;5055950;28;45416;-77
2022/12/25 07:13:02;;;;;;;;;19.25;16.00;;;;;7.60;98.56;99379.00;5055915;28;45314;-77
2022/12/25 07:15:27;;;;;;;;;14.75;10.75;;;;;7.58;98.34;99384.28;5055373;28;45933;-77
2022/12/25 07:17:52;;;;;;;;;16.25;14.75;;;;;7.57;98.28;99382.56;5055695;28;45259;-76
2022/12/25 07:20:18;;;;;;;;;18.00;18.00;;;;;7.57;98.52;99393.06;5055711;28;45369;-77
2022/12/25 07:22:43;;;;;;;;;6.25;5.00;;;;;7.57;98.31;99397.44;5055514;28;45531;-76
2022/12/25 07:25:09;;;;;;;;;16.00;14.50;;;;;7.58;98.38;99401.78;5055277;28;46638;-76
2022/12/25 07:27:34;;;;;;;;;17.75;13.25;;;;;7.57;98.13;99397.44;5055541;28;45419;-76
2022/12/25 07:30:01;;;;;;;;;15.75;12.00;;;;;7.57;98.18;99394.81;5055135;28;45494;-76
2022/12/25 07:32:29;;;;;;;;;16.00;14.50;;;;;7.57;98.02;99389.56;5055509;28;45470;-76
2022/12/25 07:34:55;;;;;;;;;16.00;14.25;;;;;7.54;97.62;99389.69;5052873;28;47578;-76
2022/12/25 07:37:20;;;;;;;;;14.25;13.75;;;;;7.52;97.92;99392.34;5055230;28;45353;-76
2022/12/25 07:39:46;;;;;;;;;15.00;13.50;;;;;7.50;97.70;99391.50;5055550;28;45364;-76
2022/12/25 07:42:11;;;;;;;;;15.25;14.75;;;;;7.50;98.04;99390.63;5055024;28;45501;-76
2022/12/25 07:44:36;;;;;;;;;13.00;11.50;;;;;7.50;98.04;99391.50;5054382;28;46268;-76
2022/12/25 07:47:02;;;;;;;;;15.25;12.25;;;;;7.50;98.06;99394.13;5055262;28;45357;-76
2022/12/25 07:49:27;;;;;;;;;16.00;11.25;;;;;7.51;98.13;99402.84;5055373;28;45413;-76
2022/12/25 07:51:52;;;;;;;;;11.75;11.50;;;;;7.50;98.14;99404.63;5055047;28;45595;-76
2022/12/25 07:54:18;;;;;;;;;14.00;11.00;;;;;7.48;97.98;99397.69;5054833;28;45767;-76
2022/12/25 07:56:43;;;;;;;;;15.00;10.00;;;;;7.49;98.39;99407.28;5054718;28;45474;-76
2022/12/25 07:59:09;;;;;;;;;15.50;12.25;;;;;7.51;97.95;99415.97;5054344;28;46064;-76
2022/12/25 08:01:34;;;;;;;;;10.75;10.25;;;;;7.51;97.54;99415.97;5053259;28;45334;-76
2022/12/25 08:04:01;;;;;;;;;12.50;9.50;;;;;7.50;97.73;99425.59;5054599;28;45499;-76
2022/12/25 08:06:32;;;;;;;;;14.00;13.50;;;;;7.52;97.66;99418.56;5053586;28;45779;-76
2022/12/25 08:09:06;;;;;;;;;15.75;14.75;;;;;7.54;97.16;99422.00;5054383;28;45491;-76
2022/12/25 08:11:32;;;;;;;;;17.75;17.00;;;;;7.55;97.42;99420.22;5054718;28;45431;-76
2022/12/25 08:13:58;;;;;;;;;14.25;14.25;;;;;7.57;97.26;99434.19;5052738;28;46891;-76
2022/12/25 08:16:23;;;;;;;;;18.25;15.00;;;;;7.59;98.19;99425.38;5054511;28;45397;-76
2022/12/25 08:18:49;;;;;;;;;20.75;15.00;;;;;7.65;97.52;99432.25;5054076;28;45491;-77
2022/12/25 08:21:15;;;;;;;;;15.00;11.00;;;;;7.69;97.79;99434.78;5053952;28;45516;-76
2022/12/25 08:23:42;;;;;;;;;12.25;11.50;;;;;7.76;97.96;99442.50;5086577;27;46743;-76
2022/12/25 08:26:12;;;;;;;;;12.00;12.00;;;;;7.84;97.57;99453.69;5053624;28;45388;-76
2022/12/25 08:28:38;;;;;;;;;12.50;12.50;;;;;7.92;97.33;99454.34;5053883;28;45453;-76
2022/12/25 08:31:15;;;;;;;;;15.75;15.00;;;;;8.00;97.54;99458.53;5054267;28;45460;-76
2022/12/25 08:33:41;;;;;;;;;20.25;17.75;;;;;8.09;97.25;99453.94;5054188;28;45719;-76
2022/12/25 08:36:09;;;;;;;;;17.75;16.00;;;;;8.16;96.94;99450.28;5054195;28;45381;-77
2022/12/25 08:38:35;;;;;;;;;20.25;14.00;;;;;8.25;96.61;99457.91;5054256;28;45332;-77
2022/12/25 08:41:00;;;;;;;;;9.00;9.00;;;;;8.31;96.21;99457.75;5054023;28;45377;-76
2022/12/25 08:43:26;;;;;;;;;16.25;11.75;;;;;8.39;96.07;99463.69;5053385;28;45362;-75
2022/12/25 08:45:51;;;;;;;;;24.25;17.25;;;;;8.47;95.69;99453.88;5055719;28;45381;-76
2022/12/25 08:48:17;;;;;;;;;21.00;18.50;;;;;8.59;95.91;99463.19;5057299;28;45323;-76
2022/12/25 08:50:47;;;;;;;;;17.25;17.25;;;;;8.64;94.71;99459.53;5057458;28;45265;-76
2022/12/25 08:53:13;;;;;;;;;16.25;13.00;;;;;8.68;95.11;99449.81;5057428;28;45715;-77
2022/12/25 08:55:39;;;;;;;;;16.50;16.50;;;;;8.76;94.78;99463.59;5057328;28;45460;-76
2022/12/25 08:58:04;;;;;;;;;19.75;18.50;;;;;8.80;94.99;99461.75;5057784;28;45391;-76
2022/12/25 09:00:30;;;;;;;;;32.67;31.00;;;;;8.84;94.87;99447.63;5057105;28;45354;-76
2022/12/25 09:02:55;;;;;;;;;28.67;26.67;;;;;8.88;95.10;99451.91;5056079;28;45437;-76
2022/12/25 09:05:20;;;;;;;;;29.67;25.33;;;;;8.96;94.49;99455.16;5057491;28;45359;-76
2022/12/25 09:07:46;;;;;;;;;14.00;10.00;;;;;8.99;94.56;99461.19;5057453;28;45329;-76
2022/12/25 09:10:11;;;;;;;;;14.50;13.00;;;;;9.01;93.78;99475.16;5057328;28;45444;-76
2022/12/25 09:12:37;;;;;;;;;12.50;11.25;;;;;9.03;94.05;99473.34;5056933;28;45521;-76
2022/12/25 09:15:04;;;;;;;;;12.75;9.50;;;;;9.07;93.33;99477.59;5056651;28;45451;-76
2022/12/25 09:17:30;;;;;;;;;13.50;12.50;;;;;9.12;93.83;99474.00;5056991;28;45425;-76
2022/12/25 09:19:56;;;;;;;;;14.75;14.00;;;;;9.14;92.69;99469.56;5055316;28;45459;-76
2022/12/25 09:22:22;;;;;;;;;13.25;11.50;;;;;9.14;93.08;99470.41;5056566;28;46184;-76
2022/12/25 09:24:47;;;;;;;;;13.75;13.75;;;;;9.17;93.55;99472.97;5056740;28;45529;-76
2022/12/25 09:27:12;;;;;;;;;17.25;15.50;;;;;9.21;93.19;99457.97;5057069;28;45432;-76
2022/12/25 09:29:39;;;;;;;;;17.00;14.50;;;;;9.18;92.62;99482.59;5056418;28;45423;-76
2022/12/25 09:32:05;;;;;;;;;12.75;12.75;;;;;9.16;92.62;99479.13;5056460;28;46513;-76
2022/12/25 09:34:31;;;;;;;;;19.75;16.25;;;;;9.12;92.83;99501.16;5056765;28;45362;-76
2022/12/25 09:36:56;;;;;;;;;16.50;14.00;;;;;9.07;92.00;99482.00;5056583;28;45344;-76
2022/12/25 09:39:22;;;;;;;;;18.50;13.00;;;;;8.99;92.77;99498.00;5056970;28;45533;-76
2022/12/25 09:42:25;;;;;;;;;18.75;15.50;;;;;9.00;92.94;99502.38;5056487;28;46620;-76
2022/12/25 09:44:56;;;;;;;;;15.75;14.50;;;;;8.99;93.28;99492.75;5013666;28;45759;-76
2022/12/25 09:47:27;;;;;;;;;18.25;16.75;;;;;8.99;93.33;99508.53;5049791;28;45481;-76
2022/12/25 09:50:13;;;;;;;;;19.75;17.75;;;;;9.07;93.88;99500.41;5056542;28;45888;-75
2022/12/25 09:52:43;;;;;;;;;17.75;17.00;;;;;9.15;92.98;99492.31;5056185;28;46583;-76
2022/12/25 09:55:13;;;;;;;;;21.25;21.00;;;;;9.09;92.97;99488.09;5056301;28;45452;-76
2022/12/25 09:57:39;;;;;;;;;24.00;22.00;;;;;9.08;93.49;99502.13;5055056;28;45565;-76
2022/12/25 10:00:16;;;;;;;;;26.25;23.00;;;;;9.09;93.77;99496.84;5055761;28;45414;-76
2022/12/25 10:02:41;;;;;;;;;22.25;20.25;;;;;9.18;94.03;99490.47;5054322;28;45556;-76
2022/12/25 10:05:09;;;;;;;;;32.00;23.25;;;;;9.24;94.18;99494.66;5056155;28;45470;-76
2022/12/25 10:08:02;;;;;;;;;26.75;24.00;;;;;9.31;93.67;99485.72;5056134;28;45390;-76
2022/12/25 10:10:51;;;;;;;;;22.50;21.50;;;;;9.41;93.84;99495.03;5054160;28;45432;-76
2022/12/25 10:13:35;;;;;;;;;26.50;22.00;;;;;9.48;93.82;99498.38;5054372;28;46924;-76
2022/12/25 10:16:09;;;;;;;;;28.00;23.25;;;;;9.57;93.19;99492.81;5054482;28;45504;-76
2022/12/25 10:18:51;;;;;;;;;21.25;18.25;;;;;9.58;93.12;99489.28;5055818;28;45554;-76
2022/12/25 10:21:19;;;;;;;;;31.25;23.75;;;;;9.60;93.40;99469.91;5055864;28;45429;-76
2022/12/25 10:23:56;;;;;;;;;33.67;29.00;;;;;9.64;92.96;99475.94;5053934;28;45729;-76
2022/12/25 10:26:24;;;;;;;;;23.75;23.50;;;;;9.62;92.68;99473.34;5053576;28;45412;-76
2022/12/25 10:29:08;;;;;;;;;27.00;23.25;;;;;9.62;93.06;99460.19;5055229;28;45424;-76
2022/12/25 10:31:36;;;;;;;;;37.00;33.00;;;;;9.63;92.98;99464.56;5054964;28;45350;-77
2022/12/25 10:34:02;;;;;;;;;25.00;24.25;;;;;9.66;93.07;99453.06;5054705;28;45479;-76
2022/12/25 10:36:29;;;;;;;;;28.00;24.25;;;;;9.74;93.32;99451.03;5054792;28;45453;-76
2022/12/25 10:38:56;;;;;;;;;29.00;25.50;;;;;9.83;92.84;99460.44;5053754;28;45532;-76
2022/12/25 10:41:39;;;;;;;;;28.25;25.00;;;;;9.89;92.70;99462.84;5055208;28;45556;-76
2022/12/25 10:44:19;;;;;;;;;29.50;25.75;;;;;9.93;91.80;99460.09;5054789;28;45432;-76
2022/12/25 10:46:58;;;;;;;;;31.50;24.25;;;;;9.92;92.67;99463.63;5055245;28;45470;-76
2022/12/25 10:49:29;;;;;;;;;26.00;26.00;;;;;9.87;91.63;99451.53;5053334;28;45636;-76
2022/12/25 10:51:54;;;;;;;;;32.00;29.67;;;;;9.79;92.05;99449.13;5055127;28;45420;-76
2022/12/25 10:54:20;;;;;;;;;38.33;31.67;;;;;9.78;92.43;99437.75;5054551;28;45916;-77
2022/12/25 10:56:55;;;;;;;;;29.75;26.50;;;;;9.82;92.84;99432.38;5055056;28;45436;-76
2022/12/25 10:59:20;;;;;;;;;28.00;26.75;;;;;9.91;92.54;99432.94;5052948;28;45464;-76
2022/12/25 11:01:46;;;;;;;;;28.00;27.67;;;;;9.93;92.03;99436.38;5054653;28;45321;-76
2022/12/25 11:04:20;;;;;;;;;33.00;28.25;;;;;9.98;92.29;99436.25;5054505;28;45423;-76
2022/12/25 11:07:03;;;;;;;;;35.67;29.00;;;;;10.06;92.56;99418.41;5054658;28;45499;-76
2022/12/25 11:09:29;;;;;;;;;36.33;32.00;;;;;10.12;92.37;99426.97;5041599;28;45373;-77
2022/12/25 11:11:55;;;;;;;;;34.33;26.00;;;;;10.15;91.97;99433.91;5054481;28;45550;-76
2022/12/25 11:14:22;;;;;;;;;32.25;27.00;;;;;10.14;91.84;99435.69;5052765;28;47458;-76
2022/12/25 11:16:48;;;;;;;;;30.33;26.67;;;;;10.19;92.08;99437.34;5052953;28;45514;-76
2022/12/25 11:19:30;;;;;;;;;32.67;31.67;;;;;10.17;90.86;99411.03;5053282;28;45564;-76
2022/12/25 11:22:02;;;;;;;;;35.00;25.33;;;;;10.04;91.73;99420.25;5052685;28;45518;-76
2022/12/25 11:24:31;;;;;;;;;39.00;32.67;;;;;9.94;92.17;99421.44;5052670;28;46710;-76
2022/12/25 11:26:59;;;;;;;;;39.00;35.67;;;;;9.90;92.72;99404.03;5054301;28;45406;-76
2022/12/25 11:29:39;;;;;;;;;37.00;33.00;;;;;9.90;92.84;99415.41;5053781;28;45313;-76
2022/12/25 11:32:15;;;;;;;;;35.33;30.67;;;;;9.95;93.00;99410.88;5054041;28;45376;-76
2022/12/25 11:34:44;;;;;;;;;35.25;30.50;;;;;9.98;92.90;99416.03;5051849;28;47285;-76
2022/12/25 11:37:34;;;;;;;;;34.00;27.00;;;;;10.02;92.69;99393.09;5054503;28;45376;-76
2022/12/25 11:40:01;;;;;;;;;36.00;33.00;;;;;10.03;92.99;99382.50;5054400;28;45462;-76
2022/12/25 11:42:35;;;;;;;;;39.33;33.33;;;;;10.12;92.90;99384.81;5054306;28;45472;-76
2022/12/25 11:45:13;;;;;;;;;37.67;32.00;;;;;10.22;92.57;99376.66;5052559;28;45870;-76
2022/12/25 11:47:53;;;;;;;;;30.00;26.33;;;;;10.28;92.39;99386.97;5053955;28;45408;-76
2022/12/25 11:50:22;;;;;;;;;36.33;32.33;;;;;10.36;92.29;99363.84;5054409;28;45380;-76
2022/12/25 11:52:48;;;;;;;;;37.33;31.67;;;;;10.49;92.40;99362.50;5054302;28;45369;-76
2022/12/25 11:55:40;;;;;;;;;33.67;29.33;;;;;10.59;91.99;99369.16;5054043;28;45436;-76
2022/12/25 11:58:16;;;;;;;;;32.33;29.33;;;;;10.66;90.77;99365.38;5053876;28;45428;-76
2022/12/25 12:00:43;;;;;;;;;38.67;28.67;;;;;10.68;90.85;99358.28;5054526;28;45514;-76
2022/12/25 12:03:20;;;;;;;;;31.25;28.75;;;;;10.74;91.36;99362.44;5053063;28;46091;-76
2022/12/25 12:05:56;;;;;;;;;31.67;28.33;;;;;10.84;91.04;99345.38;5054037;28;46066;-76
2022/12/25 12:08:22;;;;;;;;;29.25;27.00;;;;;10.93;91.02;99354.72;5054276;28;45433;-76
2022/12/25 12:11:14;;;;;;;;;36.25;26.25;;;;;11.01;90.33;99342.97;5070117;28;45348;-77
2022/12/25 12:13:53;;;;;;;;;32.25;27.75;;;;;11.07;90.24;99336.56;5053887;28;45389;-76
2022/12/25 12:16:18;;;;;;;;;17.75;17.75;;;;;11.15;90.56;99321.31;5052599;28;46929;-76
2022/12/25 12:18:44;;;;;;;;;24.50;23.25;;;;;11.24;90.40;99322.72;5053944;28;45373;-76
2022/12/25 12:21:27;;;;;;;;;27.50;25.25;;;;;11.37;89.86;99316.06;5053116;28;45534;-76
2022/12/25 12:24:10;;;;;;;;;28.75;24.75;;;;;11.45;89.93;99332.44;5053711;28;45427;-76
2022/12/25 12:26:41;;;;;;;;;26.00;22.00;;;;;11.53;89.88;99320.66;5053601;28;45330;-76
2022/12/25 12:29:24;;;;;;;;;28.25;23.75;;;;;11.61;89.67;99317.69;5053407;28;45408;-76
2022/12/25 12:31:51;;;;;;;;;25.75;22.00;;;;;11.71;89.48;99319.03;5054036;28;45440;-76
2022/12/25 12:34:31;;;;;;;;;27.00;26.00;;;;;11.81;89.31;99293.97;5054173;28;45458;-76
2022/12/25 12:37:05;;;;;;;;;33.25;28.25;;;;;11.90;88.79;99302.47;5053861;28;45340;-77
2022/12/25 12:39:37;;;;;;;;;30.00;26.75;;;;;11.95;88.53;99308.38;5053698;28;45325;-76
2022/12/25 12:42:16;;;;;;;;;27.50;25.00;;;;;11.96;87.75;99297.75;5052806;28;45424;-76
2022/12/25 12:44:44;;;;;;;;;33.25;30.00;;;;;11.99;88.26;99305.56;5053611;28;45475;-76
2022/12/25 12:47:26;;;;;;;;;31.50;27.75;;;;;12.07;88.56;99294.63;5052164;28;47972;-76
2022/12/25 12:50:00;;;;;;;;;29.00;25.25;;;;;12.17;88.00;99296.84;5053269;28;45422;-76
2022/12/25 12:52:37;;;;;;;;;28.00;27.00;;;;;12.25;87.68;99293.84;5053437;28;45484;-74
2022/12/25 12:55:05;;;;;;;;;30.50;27.00;;;;;12.33;87.65;99299.66;5053591;28;45400;-75
2022/12/25 12:57:38;;;;;;;;;30.75;27.00;;;;;12.43;87.22;99290.38;5053392;28;46282;-74
2022/12/25 13:00:08;;;;;;;;;30.75;30.25;;;;;12.52;87.06;99294.41;5053348;28;45411;-74
2022/12/25 13:03:06;;;;;;;;;30.25;25.50;;;;;12.58;86.81;99291.47;5053191;28;45505;-74
2022/12/25 13:06:10;;;;;;;;;34.00;31.25;;;;;12.59;86.64;99293.19;5052699;28;45364;-74
2022/12/25 13:09:02;;;;;;;;;26.00;25.25;;;;;12.60;86.15;99279.03;5009993;28;48073;-74
2022/12/25 13:11:34;;;;;;;;;25.00;20.25;;;;;12.66;86.18;99275.25;5073869;27;45449;-75
2022/12/25 13:14:01;;;;;;;;;23.75;22.75;;;;;12.72;86.02;99282.94;5052654;28;45454;-74
2022/12/25 13:16:40;;;;;;;;;23.00;21.50;;;;;12.80;86.14;99278.13;5053224;28;45570;-75